Time;durP1;ratioP1;P1;durP2;ratioP2;P2;SDS_P1;SDS_P2;PMS_P1;PMS_P2;Temp;Humidity;BMP_temperature;BMP_pressure;BME280_temperature;BME280_humidity;BME280_pressure;Samples;Min_cycle;Max_cycle;Signal;HPM_P1;HPM_P2
2021/07/09 00:02:32;;;;;;;48.40;46.03;;;;;;;19.54;66.92;94099.00;5070425;28;20024;-54
2021/07/09 00:04:59;;;;;;;50.85;48.45;;;;;;;19.58;66.86;94096.50;5070046;28;20044;-55
2021/07/09 00:07:24;;;;;;;50.45;48.10;;;;;;;19.58;66.98;94090.88;5082653;28;20024;-54
2021/07/09 00:09:51;;;;;;;51.33;48.92;;;;;;;19.54;66.75;94096.22;5076643;28;20035;-55
2021/07/09 00:12:17;;;;;;;52.40;49.92;;;;;;;19.49;66.91;94090.94;5081098;28;20035;-54
2021/07/09 00:14:43;;;;;;;50.10;47.78;;;;;;;19.46;66.66;94094.91;5069554;28;20024;-54
2021/07/09 00:17:08;;;;;;;54.70;52.08;;;;;;;19.45;67.09;94093.41;5076561;28;20029;-55
2021/07/09 00:19:34;;;;;;;55.03;52.05;;;;;;;19.34;67.49;94089.16;5072708;28;20027;-55
2021/07/09 00:22:00;;;;;;;48.35;46.00;;;;;;;19.41;67.11;94099.47;5087110;28;20028;-52
2021/07/09 00:24:26;;;;;;;49.58;46.95;;;;;;;19.28;67.79;94094.31;5080429;28;20035;-54
2021/07/09 00:26:51;;;;;;;49.30;46.85;;;;;;;19.25;67.98;94084.28;5071341;28;20044;-54
2021/07/09 00:29:16;;;;;;;52.15;49.65;;;;;;;19.17;68.25;94088.56;5069897;28;20027;-54
2021/07/09 00:31:42;;;;;;;53.28;50.75;;;;;;;19.24;67.98;94091.22;5089205;28;20106;-57
2021/07/09 00:34:08;;;;;;;48.53;46.10;;;;;;;19.29;67.94;94089.44;5089491;28;20481;-57
2021/07/09 00:36:34;;;;;;;45.35;43.22;;;;;;;19.25;67.87;94092.66;5075915;28;20028;-58
2021/07/09 00:39:01;;;;;;;46.80;44.47;;;;;;;19.29;67.83;94087.38;5095379;28;21263;-57
2021/07/09 00:41:27;;;;;;;47.50;45.28;;;;;;;19.24;68.17;94088.41;5075284;28;20028;-56
2021/07/09 00:43:52;;;;;;;47.78;45.30;;;;;;;19.27;67.71;94084.44;5077426;28;20680;-56
2021/07/09 00:46:30;;;;;;;44.70;42.63;;;;;;;19.18;66.82;94082.38;5075253;28;20020;-57
2021/07/09 00:48:55;;;;;;;45.28;43.10;;;;;;;19.10;66.71;94083.88;5078554;28;20078;-58
2021/07/09 00:51:21;;;;;;;46.60;44.40;;;;;;;18.87;68.07;94082.22;5079613;28;20498;-58
2021/07/09 00:53:46;;;;;;;47.03;44.53;;;;;;;18.98;67.72;94068.97;5079797;28;20036;-58
2021/07/09 00:56:12;;;;;;;43.78;41.67;;;;;;;18.98;67.71;94069.72;5076201;28;20025;-58
2021/07/09 00:58:37;;;;;;;46.05;43.85;;;;;;;18.97;68.04;94065.47;5081858;28;20040;-58
2021/07/09 01:01:03;;;;;;;46.35;44.20;;;;;;;18.97;67.86;94071.06;5105703;28;20028;-59
2021/07/09 01:03:28;;;;;;;44.22;41.90;;;;;;;18.92;68.13;94066.47;5089818;28;20107;-58
2021/07/09 01:05:54;;;;;;;47.80;45.28;;;;;;;18.99;67.65;94076.78;5074000;28;20020;-58
2021/07/09 01:08:19;;;;;;;42.55;40.58;;;;;;;18.96;67.31;94069.56;5069497;28;20425;-58
2021/07/09 01:10:46;;;;;;;38.50;36.67;;;;;;;18.97;66.24;94073.84;5087108;28;20542;-58
2021/07/09 01:13:12;;;;;;;37.80;35.80;;;;;;;18.91;66.10;94076.94;5089520;28;20121;-56
2021/07/09 01:15:38;;;;;;;40.35;38.35;;;;;;;18.85;66.19;94068.09;5105189;28;20104;-56
2021/07/09 01:18:04;;;;;;;42.03;40.03;;;;;;;18.75;66.77;94064.53;5089133;28;20028;-57
2021/07/09 01:20:30;;;;;;;43.88;41.72;;;;;;;18.65;67.25;94069.41;5089145;28;20111;-57
2021/07/09 01:22:56;;;;;;;42.88;40.67;;;;;;;18.67;67.27;94066.00;5089355;28;20112;-56
2021/07/09 01:25:27;;;;;;;43.90;41.65;;;;;;;18.55;67.77;94070.72;5071949;28;20078;-56
2021/07/09 01:27:56;;;;;;;43.40;41.13;;;;;;;18.59;67.38;94062.63;5069238;28;20067;-55
2021/07/09 01:30:23;;;;;;;51.25;48.80;;;;;;;18.57;67.95;94054.09;5068842;28;20032;-50
2021/07/09 01:32:50;;;;;;;38.85;36.83;;;;;;;18.58;67.99;94053.50;5069090;28;20033;-55
2021/07/09 01:35:16;;;;;;;39.60;37.28;;;;;;;18.52;68.25;94046.72;5069054;28;20556;-54
2021/07/09 01:37:42;;;;;;;37.45;35.28;;;;;;;18.65;67.54;94052.63;5076588;28;20501;-56
2021/07/09 01:40:10;;;;;;;38.80;36.40;;;;;;;18.67;67.40;94052.75;5092935;28;20059;-56
2021/07/09 01:42:36;;;;;;;37.08;34.95;;;;;;;18.50;67.01;94054.94;5077640;28;20024;-55
2021/07/09 01:45:02;;;;;;;39.15;37.20;;;;;;;18.38;67.05;94060.38;5072678;28;20052;-55
2021/07/09 01:47:28;;;;;;;39.08;37.08;;;;;;;18.45;67.16;94053.19;5072506;28;20025;-55
2021/07/09 01:49:59;;;;;;;40.60;38.35;;;;;;;18.42;67.51;94052.28;5072528;28;20082;-55
2021/07/09 01:52:25;;;;;;;38.63;36.75;;;;;;;18.42;67.29;94041.09;5072477;28;20111;-56
2021/07/09 01:54:51;;;;;;;39.22;37.00;;;;;;;18.39;67.26;94045.06;5072101;28;20081;-57
2021/07/09 01:57:17;;;;;;;38.80;36.95;;;;;;;18.42;67.26;94048.72;5072008;28;20032;-57
2021/07/09 01:59:43;;;;;;;37.45;35.53;;;;;;;18.37;67.38;94042.09;5072319;28;20044;-57
2021/07/09 02:02:10;;;;;;;38.55;36.25;;;;;;;18.45;67.19;94042.00;5072021;28;20111;-58
2021/07/09 02:04:47;;;;;;;38.28;35.97;;;;;;;18.08;67.36;94028.06;5076863;28;20023;-57
2021/07/09 02:07:12;;;;;;;36.58;34.67;;;;;;;18.19;67.11;94035.88;5092571;28;20028;-57
2021/07/09 02:09:43;;;;;;;38.55;36.45;;;;;;;18.21;67.24;94040.16;5092439;28;20032;-53
2021/07/09 02:12:09;;;;;;;34.83;32.97;;;;;;;17.99;68.05;94042.75;5092461;28;20031;-52
2021/07/09 02:14:35;;;;;;;35.85;34.08;;;;;;;18.00;68.06;94041.44;5092098;28;20024;-55
2021/07/09 02:17:00;;;;;;;34.40;32.55;;;;;;;18.05;67.70;94039.69;5090847;28;20032;-55
2021/07/09 02:19:26;;;;;;;35.92;34.05;;;;;;;18.07;67.59;94048.97;5091903;28;20023;-55
2021/07/09 02:21:53;;;;;;;34.53;32.70;;;;;;;18.10;67.59;94047.78;5092264;28;20031;-55
2021/07/09 02:24:19;;;;;;;34.05;32.30;;;;;;;18.07;67.75;94046.16;5107865;28;20424;-56
2021/07/09 02:26:44;;;;;;;34.80;32.83;;;;;;;17.86;68.33;94045.22;5091730;28;20104;-56
2021/07/09 02:29:09;;;;;;;34.28;32.50;;;;;;;17.79;69.20;94046.06;5091788;28;20542;-57
2021/07/09 02:31:35;;;;;;;39.42;37.20;;;;;;;17.79;69.72;94046.06;5091746;28;20074;-58
2021/07/09 02:34:00;;;;;;;35.28;33.10;;;;;;;17.74;69.79;94044.25;5091789;28;20081;-59
2021/07/09 02:36:26;;;;;;;33.88;31.92;;;;;;;17.84;69.63;94054.19;5091969;28;20020;-58
2021/07/09 02:38:51;;;;;;;32.70;30.80;;;;;;;17.81;69.25;94054.59;5091917;28;20437;-59
2021/07/09 02:41:17;;;;;;;34.90;33.05;;;;;;;17.88;67.64;94054.47;5087197;28;20032;-59
2021/07/09 02:43:43;;;;;;;33.22;31.38;;;;;;;17.81;67.49;94055.34;5071456;28;20032;-59
2021/07/09 02:46:08;;;;;;;32.80;30.95;;;;;;;17.86;67.71;94059.19;5071115;28;20024;-60
2021/07/09 02:48:33;;;;;;;30.20;28.50;;;;;;;17.79;68.10;94066.34;5070747;28;20020;-58
2021/07/09 02:50:59;;;;;;;30.58;28.95;;;;;;;17.72;68.34;94058.06;5071281;28;20025;-58
2021/07/09 02:53:24;;;;;;;31.10;29.00;;;;;;;17.72;68.49;94061.59;5071292;28;20017;-58
2021/07/09 02:55:50;;;;;;;31.55;29.33;;;;;;;17.79;68.29;94060.75;5071196;28;20020;-56
2021/07/09 02:58:15;;;;;;;32.63;30.50;;;;;;;17.83;67.72;94063.88;5070824;28;20405;-56
2021/07/09 03:00:40;;;;;;;32.25;30.50;;;;;;;17.75;67.25;94065.31;5071098;28;20020;-56
2021/07/09 03:03:06;;;;;;;31.38;29.73;;;;;;;17.73;67.61;94071.47;5071076;28;20021;-57
2021/07/09 03:05:31;;;;;;;29.40;27.80;;;;;;;17.69;68.52;94071.16;5083371;28;20031;-57
2021/07/09 03:07:57;;;;;;;27.77;26.00;;;;;;;17.71;69.38;94068.53;5091169;28;20027;-57
2021/07/09 03:10:22;;;;;;;30.08;28.08;;;;;;;17.66;70.29;94066.00;5090914;28;20032;-57
2021/07/09 03:12:48;;;;;;;29.58;27.83;;;;;;;17.51;70.77;94071.78;5090714;28;20020;-57
2021/07/09 03:15:13;;;;;;;27.67;26.13;;;;;;;17.57;70.51;94066.66;5090797;28;20028;-57
2021/07/09 03:17:39;;;;;;;28.23;26.35;;;;;;;17.63;69.17;94065.09;5090876;28;20063;-59
2021/07/09 03:20:07;;;;;;;26.23;24.63;;;;;;;17.63;68.61;94061.56;5091027;28;20547;-58
2021/07/09 03:22:32;;;;;;;30.92;28.55;;;;;;;17.60;68.61;94059.94;5088449;28;20550;-58
2021/07/09 03:24:58;;;;;;;27.52;25.95;;;;;;;17.59;68.18;94062.00;5090245;28;20028;-57
2021/07/09 03:27:23;;;;;;;27.20;25.83;;;;;;;17.57;68.48;94058.28;5076596;28;20072;-58
2021/07/09 03:29:48;;;;;;;27.00;25.30;;;;;;;17.57;68.76;94055.50;5069357;28;20020;-58
2021/07/09 03:32:14;;;;;;;29.40;27.67;;;;;;;17.54;69.08;94049.06;5069477;28;20413;-58
2021/07/09 03:34:39;;;;;;;28.40;26.73;;;;;;;17.55;69.43;94044.91;5079968;28;20031;-48
2021/07/09 03:37:05;;;;;;;28.52;26.42;;;;;;;17.61;69.23;94050.97;5088789;28;20536;-50
2021/07/09 04:01:49;;;;;;;61.25;58.22;;;;;;;18.39;66.62;94056.22;5086352;27;20621;-56
2021/07/09 04:04:14;;;;;;;39.70;37.63;;;;;;;18.25;67.50;94046.06;5085205;28;20032;-57
2021/07/09 04:06:39;;;;;;;38.85;36.60;;;;;;;18.19;68.07;94049.84;5086652;28;20020;-58
2021/07/09 04:09:05;;;;;;;39.75;36.78;;;;;;;18.13;68.69;94049.41;5086575;28;20019;-58
2021/07/09 04:11:30;;;;;;;37.70;35.42;;;;;;;18.07;69.37;94051.00;5086601;28;20055;-59
2021/07/09 04:13:56;;;;;;;40.08;37.78;;;;;;;18.02;70.15;94047.16;5086425;28;20493;-59
2021/07/09 04:16:22;;;;;;;40.75;38.50;;;;;;;17.95;70.69;94048.03;5086301;28;20024;-56
2021/07/09 04:18:47;;;;;;;44.30;41.72;;;;;;;17.96;71.21;94045.97;5086609;28;20027;-57
2021/07/09 04:21:13;;;;;;;40.80;38.38;;;;;;;18.08;71.48;94055.28;5086518;28;20443;-57
2021/07/09 04:23:38;;;;;;;43.10;40.85;;;;;;;18.11;71.29;94048.50;5086564;28;20032;-54
2021/07/09 04:26:03;;;;;;;43.08;40.75;;;;;;;17.98;71.94;94049.66;5086377;28;20460;-56
2021/07/09 04:28:29;;;;;;;44.22;41.72;;;;;;;18.14;71.80;94059.28;5086009;28;20489;-57
2021/07/09 04:30:54;;;;;;;46.97;44.55;;;;;;;18.20;71.22;94064.56;5086035;28;20035;-49
2021/07/09 04:33:22;;;;;;;46.45;43.72;;;;;;;18.21;71.47;94059.72;5086160;28;20595;-52
2021/07/09 04:35:48;;;;;;;49.75;47.17;;;;;;;18.24;71.53;94052.97;5085960;28;20020;-52
2021/07/09 04:38:13;;;;;;;48.05;45.35;;;;;;;18.31;71.72;94052.09;5086141;28;20030;-54
2021/07/09 04:40:39;;;;;;;46.00;43.35;;;;;;;18.38;71.55;94051.97;5086033;28;20032;-52
2021/07/09 04:43:04;;;;;;;48.78;45.92;;;;;;;18.44;71.81;94046.84;5085731;28;20382;-50
2021/07/09 04:45:30;;;;;;;53.55;50.72;;;;;;;18.46;72.04;94055.41;5085998;28;20493;-52
2021/07/09 04:47:55;;;;;;;50.85;48.08;;;;;;;18.56;72.41;94049.84;5085956;28;20409;-52
2021/07/09 04:50:20;;;;;;;49.90;47.22;;;;;;;18.60;73.13;94044.53;5080708;28;20029;-55
2021/07/09 04:52:46;;;;;;;51.28;48.22;;;;;;;18.67;73.31;94049.22;5072169;28;20036;-58
2021/07/09 04:55:12;;;;;;;48.80;45.88;;;;;;;18.75;73.41;94038.66;5072090;28;20086;-59
2021/07/09 04:57:38;;;;;;;50.13;47.45;;;;;;;18.83;73.76;94042.03;5072015;28;20050;-59
2021/07/09 05:00:05;;;;;;;49.65;46.75;;;;;;;18.84;73.66;94038.63;5071645;28;20040;-58
2021/07/09 05:02:31;;;;;;;51.05;48.35;;;;;;;18.96;73.67;94038.03;5072234;28;20075;-58
2021/07/09 05:04:56;;;;;;;50.17;47.53;;;;;;;19.01;73.58;94037.75;5072162;28;20052;-57
2021/07/09 05:07:22;;;;;;;129.00;56.38;;;;;;;19.06;73.93;94033.91;5071853;28;20024;-56
2021/07/09 05:09:47;;;;;;;70.82;53.55;;;;;;;19.14;74.00;94031.72;5072068;28;20009;-60
2021/07/09 05:12:12;;;;;;;59.60;56.40;;;;;;;19.19;74.29;94032.75;5071776;28;20029;-59
2021/07/09 05:14:38;;;;;;;61.53;57.97;;;;;;;19.27;73.90;94031.25;5072052;28;20044;-58
2021/07/09 05:17:04;;;;;;;64.25;60.85;;;;;;;19.31;73.82;94031.53;5071946;28;20028;-58
2021/07/09 05:19:29;;;;;;;65.57;61.38;;;;;;;19.36;73.74;94030.50;5071402;28;20707;-58
2021/07/09 05:21:55;;;;;;;66.00;62.03;;;;;;;19.41;73.61;94034.31;5071894;28;20024;-59
2021/07/09 05:24:24;;;;;;;67.20;63.80;;;;;;;19.24;73.98;94010.03;5071492;28;20063;-57
2021/07/09 05:26:50;;;;;;;79.07;74.85;;;;;;;19.49;74.51;94027.22;5071780;28;20055;-57
2021/07/09 05:29:15;;;;;;;60.03;56.63;;;;;;;19.55;74.54;94033.28;5071803;28;20490;-58
2021/07/09 05:31:41;;;;;;;68.22;64.55;;;;;;;19.66;74.39;94027.03;5071299;28;20027;-58
2021/07/09 05:34:07;;;;;;;72.05;68.32;;;;;;;19.66;75.17;94024.22;5071642;28;20062;-56
2021/07/09 05:36:32;;;;;;;64.55;61.10;;;;;;;19.78;75.70;94029.19;5071574;28;20021;-59
2021/07/09 05:38:58;;;;;;;63.97;60.17;;;;;;;19.85;75.61;94025.50;5071231;28;20471;-57
2021/07/09 05:41:23;;;;;;;72.70;68.82;;;;;;;19.92;75.39;94016.91;5071140;28;20017;-59
2021/07/09 05:43:49;;;;;;;68.47;64.93;;;;;;;19.94;75.00;94007.91;5071243;28;20463;-60
2021/07/09 05:46:15;;;;;;;89.82;85.40;;;;;;;20.11;74.97;94011.22;5071442;28;20031;-59
2021/07/09 05:48:40;;;;;;;141.18;133.48;;;;;;;20.31;73.15;94009.78;5071255;28;20404;-59
2021/07/09 05:51:05;;;;;;;96.05;91.68;;;;;;;20.47;72.55;94012.19;5071116;28;20040;-60
2021/07/09 05:53:31;;;;;;;67.80;64.38;;;;;;;20.51;71.76;94001.97;5070973;28;20029;-61
2021/07/09 05:55:57;;;;;;;58.53;55.60;;;;;;;20.57;71.20;94002.38;5071352;28;20031;-60
2021/07/09 05:58:23;;;;;;;66.43;63.13;;;;;;;20.62;71.54;93995.69;5071130;28;20047;-60
2021/07/09 06:00:49;;;;;;;55.95;53.35;;;;;;;20.70;71.05;94009.53;5070643;28;20552;-61
2021/07/09 06:03:14;;;;;;;56.63;53.92;;;;;;;20.73;71.07;93999.88;5069986;28;20028;-61
2021/07/09 06:05:39;;;;;;;46.95;44.67;;;;;;;20.84;70.38;94002.00;5070852;28;20038;-60
2021/07/09 06:08:06;;;;;;;44.20;41.95;;;;;;;20.99;68.97;93999.50;5070890;28;20033;-60
2021/07/09 06:10:32;;;;;;;47.30;44.67;;;;;;;21.01;69.04;94010.88;5070639;28;20116;-59
2021/07/09 06:12:58;;;;;;;46.28;44.03;;;;;;;21.01;70.31;94005.25;5071074;28;20099;-60
2021/07/09 06:15:24;;;;;;;49.92;47.35;;;;;;;21.07;69.59;94008.47;5071061;28;20021;-60
2021/07/09 06:17:50;;;;;;;48.50;46.00;;;;;;;21.21;69.34;94010.72;5070912;28;20020;-61
2021/07/09 06:20:16;;;;;;;46.85;44.55;;;;;;;21.25;69.21;94008.91;5070988;28;20051;-62
2021/07/09 06:22:41;;;;;;;47.00;44.70;;;;;;;21.35;69.03;94001.13;5070929;28;20078;-63
2021/07/09 06:25:07;;;;;;;70.40;66.57;;;;;;;21.33;68.76;94003.78;5070810;28;20024;-59
2021/07/09 06:27:33;;;;;;;45.95;43.75;;;;;;;21.36;68.75;93999.78;5070443;28;20035;-60
2021/07/09 06:29:58;;;;;;;51.25;48.55;;;;;;;21.37;69.24;94003.31;5070660;28;20086;-60
2021/07/09 06:32:24;;;;;;;52.42;49.83;;;;;;;21.39;67.96;93990.16;5070590;28;20020;-59
2021/07/09 06:34:49;;;;;;;57.25;54.00;;;;;;;21.57;68.22;94001.78;5070493;28;20032;-60
2021/07/09 06:37:15;;;;;;;46.88;44.33;;;;;;;21.62;69.30;94003.50;5070473;28;20021;-61
2021/07/09 06:39:40;;;;;;;47.70;45.30;;;;;;;21.74;68.05;94004.25;5070090;28;20029;-61
2021/07/09 06:42:06;;;;;;;48.72;46.25;;;;;;;21.76;69.06;94010.00;5069698;28;20032;-60
2021/07/09 06:44:31;;;;;;;46.72;44.50;;;;;;;21.81;68.72;94000.44;5070270;28;20075;-55
2021/07/09 06:46:57;;;;;;;49.75;47.15;;;;;;;21.85;68.69;93998.66;5069865;28;20028;-52
2021/07/09 06:49:22;;;;;;;45.70;43.15;;;;;;;21.95;67.84;94000.63;5070128;28;20029;-51
2021/07/09 06:51:48;;;;;;;41.85;39.65;;;;;;;21.98;67.83;94002.94;5069852;28;20052;-59
2021/07/09 06:54:13;;;;;;;48.42;45.60;;;;;;;21.97;67.59;93995.84;5069871;28;20028;-58
2021/07/09 06:56:38;;;;;;;43.42;41.03;;;;;;;22.01;67.75;93996.09;5069813;28;20024;-59
2021/07/09 06:59:04;;;;;;;36.10;34.20;;;;;;;22.12;67.40;94003.78;5069522;28;20028;-58
2021/07/09 07:01:29;;;;;;;46.28;43.80;;;;;;;22.24;66.18;94001.69;5069466;28;20048;-60
2021/07/09 07:03:55;;;;;;;33.45;31.73;;;;;;;22.27;65.92;94005.38;5069823;28;20039;-58
2021/07/09 07:06:20;;;;;;;33.70;31.80;;;;;;;22.34;64.55;94012.81;5069870;28;20032;-57
2021/07/09 07:08:46;;;;;;;35.65;33.55;;;;;;;22.21;65.44;93979.69;5069950;28;20020;-58
2021/07/09 07:11:11;;;;;;;42.00;39.90;;;;;;;22.42;66.58;94007.66;5069545;28;20028;-59
2021/07/09 07:13:36;;;;;;;28.40;26.90;;;;;;;22.52;64.49;94002.66;5069066;28;20031;-58
2021/07/09 07:16:04;;;;;;;27.17;25.50;;;;;;;22.58;63.59;94009.38;5069428;28;20032;-58
2021/07/09 07:18:29;;;;;;;29.67;28.10;;;;;;;22.60;64.58;94006.69;5069637;28;20651;-57
2021/07/09 07:20:55;;;;;;;27.02;25.48;;;;;;;22.70;64.48;94000.19;5069482;28;20024;-58
2021/07/09 07:23:20;;;;;;;31.90;29.90;;;;;;;22.71;63.72;93996.75;5059325;28;20037;-61
2021/07/09 07:25:47;;;;;;;31.50;29.48;;;;;;;22.78;64.57;93992.22;5068680;28;20111;-58
2021/07/09 07:28:13;;;;;;;28.35;26.70;;;;;;;22.87;63.71;93992.03;5069635;28;20021;-59
2021/07/09 07:30:40;;;;;;;20.98;19.67;;;;;;;22.94;63.57;93982.59;5068562;28;20119;-58
2021/07/09 07:33:05;;;;;;;20.02;18.48;;;;;;;23.15;64.07;93987.28;5069691;28;20111;-58
2021/07/09 07:35:31;;;;;;;16.45;15.15;;;;;;;23.36;62.49;93995.53;5069320;28;20106;-58
2021/07/09 07:37:57;;;;;;;22.90;18.80;;;;;;;23.60;63.13;93988.41;5069617;28;20048;-60
2021/07/09 07:40:23;;;;;;;18.88;17.65;;;;;;;23.89;63.47;93985.00;5069531;28;20035;-58
2021/07/09 07:42:49;;;;;;;12.75;11.57;;;;;;;23.94;60.03;93986.69;5068884;28;20420;-60
2021/07/09 07:45:14;;;;;;;13.38;12.57;;;;;;;24.14;59.67;93989.88;5069361;28;20030;-59
2021/07/09 07:47:40;;;;;;;12.95;12.05;;;;;;;24.22;59.10;93990.28;5069148;28;20102;-60
2021/07/09 07:50:06;;;;;;;12.40;11.65;;;;;;;24.42;58.00;93986.44;5069139;28;20036;-60
2021/07/09 07:52:32;;;;;;;16.70;11.50;;;;;;;24.67;56.77;93989.13;5069503;28;20032;-59
2021/07/09 07:54:57;;;;;;;11.52;10.52;;;;;;;24.90;56.27;93985.34;5069560;28;20412;-58
2021/07/09 07:57:23;;;;;;;11.85;10.80;;;;;;;25.17;56.76;93988.09;5069208;28;20171;-58
2021/07/09 07:59:48;;;;;;;11.23;10.52;;;;;;;25.55;57.40;93987.09;5069108;28;20112;-59
2021/07/09 08:02:14;;;;;;;10.68;9.98;;;;;;;25.98;55.86;93986.25;5069185;28;20112;-55
2021/07/09 08:04:39;;;;;;;12.00;10.95;;;;;;;26.11;54.90;93985.44;5069430;28;20032;-56
2021/07/09 08:07:05;;;;;;;7.45;6.93;;;;;;;26.18;52.31;93981.53;5069245;28;20032;-55
2021/07/09 08:09:31;;;;;;;11.05;8.10;;;;;;;26.02;49.71;93980.75;5069229;28;20027;-60
2021/07/09 08:11:57;;;;;;;7.45;6.88;;;;;;;25.93;50.20;93976.09;5069277;28;20025;-57
2021/07/09 08:14:23;;;;;;;8.50;7.60;;;;;;;26.18;51.38;93981.53;5069504;28;20099;-58
2021/07/09 08:16:51;;;;;;;9.48;8.35;;;;;;;26.34;51.98;93953.91;5069585;28;20508;-54
2021/07/09 08:19:17;;;;;;;10.73;9.80;;;;;;;26.88;51.18;93972.53;5069045;28;20103;-53
2021/07/09 08:21:46;;;;;;;8.65;7.07;;;;;;;27.39;48.37;93972.53;5069516;28;20218;-55
2021/07/09 08:24:15;;;;;;;7.55;6.85;;;;;;;27.82;48.30;93964.28;5069366;28;20058;-52
2021/07/09 08:26:40;;;;;;;;;;;;;;;28.32;47.03;93965.44;5072622;28;20029;-57
2021/07/09 08:29:05;;;;;;;6.27;5.70;;;;;;;28.34;44.88;93966.25;5072832;28;20360;-56
2021/07/09 08:31:31;;;;;;;7.90;7.22;;;;;;;28.36;45.76;93966.31;5072636;28;20480;-50
2021/07/09 08:33:56;;;;;;;6.10;5.60;;;;;;;29.00;44.07;93961.47;5072999;28;20028;-49
2021/07/09 08:36:23;;;;;;;5.93;5.50;;;;;;;28.82;42.29;93955.88;5072652;28;20059;-59
2021/07/09 08:38:49;;;;;;;5.53;5.13;;;;;;;28.88;42.34;93958.19;5072877;28;20047;-59
2021/07/09 08:41:14;;;;;;;6.78;6.28;;;;;;;28.64;43.60;93943.88;5072221;28;20029;-58
2021/07/09 08:43:40;;;;;;;6.05;5.45;;;;;;;28.45;45.11;93959.56;5072802;28;20067;-59
2021/07/09 08:46:06;;;;;;;6.35;5.72;;;;;;;28.10;44.36;93958.94;5072171;28;20035;-48
2021/07/09 08:48:31;;;;;;;7.57;7.00;;;;;;;28.47;45.04;93936.16;5057128;28;20108;-52
2021/07/09 08:50:59;;;;;;;8.15;6.38;;;;;;;28.64;44.79;93948.84;5058574;28;20032;-51
2021/07/09 08:53:24;;;;;;;5.85;5.35;;;;;;;28.68;41.55;93954.66;5070242;28;20485;-54
2021/07/09 08:55:50;;;;;;;6.78;6.10;;;;;;;28.71;42.60;93947.66;5070215;28;20023;-58
2021/07/09 08:58:15;;;;;;;6.15;5.65;;;;;;;28.85;42.93;93950.97;5070347;28;20036;-60
2021/07/09 09:00:42;;;;;;;6.47;5.95;;;;;;;28.76;41.92;93952.81;5069985;28;20908;-58
2021/07/09 09:03:33;;;;;;;8.05;5.75;;;;;;;29.11;43.46;93951.84;5070047;28;20032;-60
2021/07/09 09:06:02;;;;;;;5.82;5.35;;;;;;;29.29;41.65;93946.78;5049986;28;20036;-58
2021/07/09 09:08:29;;;;;;;6.22;5.72;;;;;;;29.17;41.62;93944.28;5050431;28;20492;-58
2021/07/09 09:10:58;;;;;;;6.47;5.97;;;;;;;29.01;40.95;93948.69;5048630;28;20506;-58
2021/07/09 09:13:29;;;;;;;6.50;6.00;;;;;;;28.94;42.16;93932.81;5049945;28;20095;-58
2021/07/09 09:16:11;;;;;;;5.55;5.10;;;;;;;29.18;41.47;93942.16;5060053;28;20044;-59
2021/07/09 09:18:42;;;;;;;6.90;6.30;;;;;;;28.96;41.13;93938.56;5069732;28;20528;-58
2021/07/09 09:21:11;;;;;;;6.97;6.28;;;;;;;29.04;41.58;93936.72;5069973;28;20024;-58
2021/07/09 09:23:51;;;;;;;6.40;5.90;;;;;;;29.32;41.04;93939.78;5066682;28;20394;-58
2021/07/09 09:26:53;;;;;;;8.82;5.88;;;;;;;29.49;43.62;93933.22;5069137;28;20546;-59
2021/07/09 09:29:27;;;;;;;5.80;5.35;;;;;;;29.43;40.96;93933.03;5068803;28;20086;-59
2021/07/09 09:32:00;;;;;;;6.38;5.88;;;;;;;29.34;40.50;93931.31;5068844;28;20032;-57
2021/07/09 09:34:46;;;;;;;5.97;5.47;;;;;;;28.77;41.82;93934.38;5067090;28;20033;-55
2021/07/09 09:37:21;;;;;;;6.40;5.82;;;;;;;29.07;41.69;93935.41;5069004;28;20035;-59
2021/07/09 09:39:48;;;;;;;6.35;5.85;;;;;;;28.98;41.63;93936.53;5069672;28;20046;-58
2021/07/09 09:42:21;;;;;;;6.97;6.25;;;;;;;29.20;43.45;93925.16;5068283;28;20029;-58
2021/07/09 09:44:50;;;;;;;6.15;5.47;;;;;;;30.17;41.42;93931.00;5068923;28;20106;-59
2021/07/09 09:47:20;;;;;;;6.57;5.97;;;;;;;30.84;40.43;93928.56;5063779;28;20060;-62
2021/07/09 09:49:51;;;;;;;5.45;5.00;;;;;;;30.63;37.79;93938.00;5056803;28;20016;-58
2021/07/09 09:52:33;;;;;;;5.80;5.25;;;;;;;30.13;39.22;93930.88;5067467;28;20529;-56
2021/07/09 09:54:58;;;;;;;28.85;6.72;;;;;;;30.09;41.42;93927.91;5067615;28;20173;-58
2021/07/09 09:57:24;;;;;;;5.95;5.53;;;;;;;30.83;40.32;93923.56;5067958;28;20541;-58
2021/07/09 09:59:51;;;;;;;5.75;5.35;;;;;;;30.92;39.14;93923.13;5067552;28;20032;-58
2021/07/09 10:02:16;;;;;;;5.65;5.15;;;;;;;30.35;38.62;93926.56;5067602;28;20541;-58
2021/07/09 10:04:42;;;;;;;6.95;5.63;;;;;;;30.42;38.32;93918.91;5068010;28;20115;-57
2021/07/09 10:07:08;;;;;;;5.53;5.13;;;;;;;29.84;39.83;93921.50;5067607;28;20032;-57
2021/07/09 10:09:34;;;;;;;5.95;5.45;;;;;;;29.54;39.94;93909.16;5067676;28;20017;-59
2021/07/09 10:12:03;;;;;;;6.63;6.03;;;;;;;29.29;41.30;93920.47;5064007;28;20067;-58
2021/07/09 10:14:31;;;;;;;7.82;6.53;;;;;;;29.78;40.97;93912.03;5067518;28;20028;-59
2021/07/09 10:17:02;;;;;;;13.32;5.30;;;;;;;30.62;40.26;93911.59;5067192;28;20115;-61
2021/07/09 10:19:38;;;;;;;5.03;4.72;;;;;;;31.18;37.06;93903.81;5067541;28;20024;-59
2021/07/09 10:22:06;;;;;;;5.95;5.45;;;;;;;30.94;38.02;93906.06;5067750;28;20029;-59
2021/07/09 10:24:32;;;;;;;6.32;5.82;;;;;;;30.71;38.11;93904.72;5065062;28;20067;-59
2021/07/09 10:26:58;;;;;;;5.43;5.03;;;;;;;31.14;36.34;93903.72;5067730;28;20424;-59
2021/07/09 10:29:28;;;;;;;5.88;5.22;;;;;;;31.80;37.41;93893.13;5066002;28;20029;-60
2021/07/09 10:31:54;;;;;;;6.07;5.55;;;;;;;32.26;36.59;93887.69;5067035;28;20502;-58
2021/07/09 10:34:29;;;;;;;9.38;5.53;;;;;;;32.50;34.54;93888.19;5067397;28;20032;-58
2021/07/09 10:36:58;;;;;;;17.20;6.65;;;;;;;32.29;34.96;93885.59;5067197;28;20054;-58
2021/07/09 10:39:37;;;;;;;5.70;5.20;;;;;;;31.71;34.93;93882.19;5066738;28;20550;-53
2021/07/09 10:42:13;;;;;;;7.07;5.47;;;;;;;31.17;35.66;93879.53;5066586;28;20480;-59
2021/07/09 10:44:46;;;;;;;5.10;4.72;;;;;;;31.88;36.29;93872.59;5062846;28;20084;-58
2021/07/09 10:47:17;;;;;;;7.40;4.80;;;;;;;32.24;34.47;93858.34;5065716;28;20411;-58
2021/07/09 10:49:52;;;;;;;4.85;4.50;;;;;;;32.55;33.84;93861.09;5066874;28;20074;-57
2021/07/09 10:52:43;;;;;;;4.97;4.53;;;;;;;32.73;33.42;93863.56;5065106;28;20466;-58
2021/07/09 10:55:26;;;;;;;4.68;4.38;;;;;;;32.99;33.26;93860.44;5066227;28;20039;-59
2021/07/09 10:58:07;;;;;;;4.40;4.00;;;;;;;33.15;33.26;93861.47;5067241;28;20094;-58
2021/07/09 11:00:48;;;;;;;5.50;4.95;;;;;;;32.68;33.44;93864.94;5065978;28;20055;-56
2021/07/09 11:03:28;;;;;;;5.10;4.65;;;;;;;32.52;34.00;93867.47;5065999;28;20031;-57
2021/07/09 11:05:57;;;;;;;7.45;5.30;;;;;;;32.34;32.82;93870.69;5066383;28;20035;-59
2021/07/09 11:08:31;;;;;;;4.90;4.50;;;;;;;31.65;33.14;93870.66;5068240;28;20055;-58
2021/07/09 11:11:00;;;;;;;5.00;4.57;;;;;;;31.49;34.38;93856.75;5066791;28;20025;-56
2021/07/09 11:13:41;;;;;;;10.68;4.13;;;;;;;31.91;35.29;93854.06;5068642;28;20028;-57
2021/07/09 11:16:23;;;;;;;4.50;4.03;;;;;;;32.05;33.71;93862.97;5067662;28;20574;-60
2021/07/09 11:18:56;;;;;;;5.05;4.65;;;;;;;32.09;34.25;93852.34;5068403;28;20653;-59
2021/07/09 11:21:30;;;;;;;5.07;4.78;;;;;;;32.20;34.04;93861.84;5068520;28;20028;-59
2021/07/09 11:24:10;;;;;;;5.60;5.20;;;;;;;31.90;33.25;93855.50;5066134;28;20078;-56
2021/07/09 11:26:40;;;;;;;5.28;4.72;;;;;;;31.18;35.16;93848.88;5066061;28;20016;-56
2021/07/09 11:29:27;;;;;;;6.05;5.40;;;;;;;30.33;36.59;93848.84;5068364;28;20094;-58
2021/07/09 11:31:57;;;;;;;5.20;4.80;;;;;;;30.03;37.59;93854.44;5065442;28;20019;-55
2021/07/09 11:34:24;;;;;;;5.53;5.13;;;;;;;30.08;37.95;93858.13;5064592;28;20028;-57
2021/07/09 11:36:52;;;;;;;9.13;5.68;;;;;;;30.31;37.12;93854.50;5066150;28;20108;-51
2021/07/09 11:39:17;;;;;;;5.60;5.20;;;;;;;30.88;37.27;93842.44;5066286;28;20439;-56
2021/07/09 11:41:56;;;;;;;5.47;5.00;;;;;;;31.36;35.84;93840.75;5065678;28;20100;-55
2021/07/09 11:44:41;;;;;;;10.35;9.70;;;;;;;30.50;35.45;93833.63;5064805;28;20759;-54
2021/07/09 11:47:12;;;;;;;6.32;5.60;;;;;;;30.20;36.83;93832.81;5062933;28;20116;-54